Beaux Arts Village, Washington
Current Conditions -  °F | °C
As of 5:53 AM on Thursday 23 Oct 2014 (Local Time) from KBFI Reporting Station
Light Rain Light Rain  
Wind Chill: 56°   Ceiling: 7000
Heat Index: 56°   Visibility: 10mi
Dew Point: 48°   Wind: 15mph
Humidity: 75%   Direction: 170°S
Pressure: 29.73"   Gusts: NA
Location:  47.6186°N, 122.204°W
Report Text: KBFI 231253Z 17013KT 10SM -RA SCT050 BKN070 OVC085 13/09 A2973 RMK AO2 RAB49 SLP067 P0000 T01330089
Loading
Personal Weather Stations






























Interactive Weather Map
Tropical Storm Tracking
New forecast layout! Learn more

10-Day Weather Forecast

Advertisements
Track Severe Weather on mobile